createdAt,value
2019-05-14T00:00:05.207Z,7.41
2019-05-14T00:01:05.193Z,7.37
2019-05-14T00:02:05.185Z,7.38
2019-05-14T00:03:05.172Z,7.44
2019-05-14T00:04:05.179Z,7.41
2019-05-14T00:05:05.150Z,7.31
2019-05-14T00:06:05.136Z,7.37
2019-05-14T00:07:05.129Z,7.31
2019-05-14T00:08:05.112Z,7.37
2019-05-14T00:09:05.123Z,7.34
2019-05-14T00:10:05.090Z,7.17
2019-05-14T00:11:05.080Z,7.29
2019-05-14T00:12:05.073Z,7.20
2019-05-14T00:13:05.059Z,7.08
2019-05-14T00:14:05.064Z,7.07
2019-05-14T00:15:05.033Z,7.15
2019-05-14T00:16:05.047Z,7.07
2019-05-14T00:17:05.009Z,7.13
2019-05-14T00:18:05.023Z,7.07
2019-05-14T00:19:05.008Z,7.15
2019-05-14T00:20:09.698Z,6.99
2019-05-14T00:21:05.962Z,7.04
2019-05-14T00:22:04.954Z,7.16
2019-05-14T00:23:04.943Z,7.07
2019-05-14T00:24:04.949Z,7.13
2019-05-14T00:25:04.919Z,7.05
2019-05-14T00:26:04.916Z,7.08
2019-05-14T00:27:04.900Z,7.09
2019-05-14T00:28:04.889Z,6.98
2019-05-14T00:29:04.891Z,6.98
2019-05-14T00:30:04.861Z,7.01
2019-05-14T00:31:04.851Z,7.04
2019-05-14T00:32:04.838Z,7.02
2019-05-14T00:33:04.827Z,6.90
2019-05-14T00:34:04.861Z,7.02
2019-05-14T00:35:04.806Z,6.89
2019-05-14T00:36:04.794Z,6.95
2019-05-14T00:37:04.781Z,6.79
2019-05-14T00:38:04.773Z,6.97
2019-05-14T00:39:04.760Z,7.01
2019-05-14T00:40:04.767Z,6.98
2019-05-14T00:41:04.735Z,6.89
2019-05-14T00:42:04.724Z,6.83
2019-05-14T00:43:04.714Z,6.84
2019-05-14T00:44:04.701Z,6.76
2019-05-14T00:45:04.711Z,6.72
2019-05-14T00:46:04.679Z,6.63
2019-05-14T00:47:04.668Z,6.72
2019-05-14T00:48:04.659Z,6.77
2019-05-14T00:49:04.645Z,6.66
2019-05-14T00:50:04.653Z,6.69
2019-05-14T00:51:04.623Z,6.76
2019-05-14T00:52:04.614Z,6.79
2019-05-14T00:53:04.598Z,6.76
2019-05-14T00:54:04.587Z,6.68
2019-05-14T00:55:04.596Z,6.68
2019-05-14T00:56:04.563Z,6.58
2019-05-14T00:57:04.553Z,6.68
2019-05-14T00:58:04.539Z,6.73
2019-05-14T00:59:04.529Z,6.68
2019-05-14T01:00:04.520Z,6.53
2019-05-14T01:01:04.522Z,6.53
2019-05-14T01:02:04.496Z,6.53
2019-05-14T01:03:04.483Z,6.65
2019-05-14T01:04:04.472Z,6.51
2019-05-14T01:05:04.461Z,6.50
2019-05-14T01:06:04.468Z,6.56
2019-05-14T01:07:04.439Z,6.38
2019-05-14T01:08:04.430Z,6.40
2019-05-14T01:09:04.421Z,6.38
2019-05-14T01:10:04.402Z,6.36
2019-05-14T01:11:04.411Z,6.35
2019-05-14T01:12:04.380Z,6.30
2019-05-14T01:13:04.370Z,6.25
2019-05-14T01:14:04.357Z,6.25
2019-05-14T01:15:10.589Z,6.19
2019-05-14T01:16:05.351Z,6.18
2019-05-14T01:17:04.323Z,6.25
2019-05-14T01:18:04.314Z,6.11
2019-05-14T01:19:04.299Z,6.11
2019-05-14T01:20:04.289Z,6.18
2019-05-14T01:21:04.296Z,6.18
2019-05-14T01:22:04.267Z,6.14
2019-05-14T01:23:04.253Z,6.04
2019-05-14T01:24:04.242Z,6.04
2019-05-14T01:25:04.232Z,6.06
2019-05-14T01:26:04.237Z,5.82
2019-05-14T01:27:04.206Z,6.00
2019-05-14T01:28:04.196Z,5.96
2019-05-14T01:29:04.184Z,5.98
2019-05-14T01:30:04.172Z,5.89
2019-05-14T01:31:04.181Z,5.82
2019-05-14T01:32:04.148Z,5.88
2019-05-14T01:33:04.139Z,5.67
2019-05-14T01:34:04.126Z,5.75
2019-05-14T01:35:04.116Z,5.68
2019-05-14T01:36:04.122Z,5.56
2019-05-14T01:37:04.121Z,5.60
2019-05-14T01:38:04.083Z,5.57
2019-05-14T01:39:04.070Z,5.57
2019-05-14T01:40:04.060Z,5.55
2019-05-14T01:41:04.069Z,5.43
2019-05-14T01:42:04.035Z,5.52
2019-05-14T01:43:04.026Z,5.52
2019-05-14T01:44:04.012Z,5.32
2019-05-14T01:45:04.000Z,5.55
2019-05-14T01:46:03.987Z,5.52
2019-05-14T01:47:03.997Z,5.46
2019-05-14T01:48:03.966Z,5.48
2019-05-14T01:49:03.954Z,5.37
2019-05-14T01:50:03.945Z,5.31
2019-05-14T01:51:03.933Z,5.45
2019-05-14T01:52:03.938Z,5.40
2019-05-14T01:53:03.909Z,5.48
2019-05-14T01:54:03.898Z,5.35
2019-05-14T01:55:03.885Z,5.43
2019-05-14T01:56:03.876Z,5.40
2019-05-14T01:57:03.883Z,5.43
2019-05-14T01:58:03.852Z,5.41
2019-05-14T01:59:03.839Z,5.35
2019-05-14T02:00:03.827Z,5.32
2019-05-14T02:01:03.816Z,5.20
2019-05-14T02:02:03.846Z,5.20
2019-05-14T02:03:03.792Z,5.30
2019-05-14T02:04:03.782Z,5.27
2019-05-14T02:05:03.772Z,5.22
2019-05-14T02:06:03.759Z,5.25
2019-05-14T02:07:03.750Z,5.25
2019-05-14T02:08:03.756Z,5.28
2019-05-14T02:09:03.726Z,5.16
2019-05-14T02:10:03.715Z,5.17
2019-05-14T02:11:03.702Z,5.16
2019-05-14T02:12:03.690Z,5.10
2019-05-14T02:13:03.700Z,4.95
2019-05-14T02:14:03.668Z,4.99
2019-05-14T02:15:03.655Z,5.04
2019-05-14T02:16:03.651Z,4.96
2019-05-14T02:17:03.632Z,4.98
2019-05-14T02:18:03.642Z,4.94
2019-05-14T02:19:03.609Z,4.92
2019-05-14T02:20:03.605Z,4.91
2019-05-14T02:21:03.593Z,4.84
2019-05-14T02:22:03.578Z,4.98
2019-05-14T02:23:03.583Z,4.83
2019-05-14T02:24:03.554Z,4.94
2019-05-14T02:25:03.541Z,4.83
2019-05-14T02:26:03.531Z,4.89
2019-05-14T02:27:03.521Z,4.95
2019-05-14T02:28:03.530Z,4.88
2019-05-14T02:29:03.499Z,4.84
2019-05-14T02:30:03.485Z,4.94
2019-05-14T02:31:04.170Z,4.86
2019-05-14T02:32:03.464Z,4.84
2019-05-14T02:33:03.453Z,4.84
2019-05-14T02:34:03.459Z,4.80
2019-05-14T02:35:03.429Z,4.83
2019-05-14T02:36:03.415Z,4.84
2019-05-14T02:37:03.408Z,4.73
2019-05-14T02:38:03.396Z,4.75
2019-05-14T02:39:03.409Z,4.84
2019-05-14T02:40:03.375Z,4.67
2019-05-14T02:41:03.364Z,4.70
2019-05-14T02:42:03.350Z,4.67
2019-05-14T02:43:03.339Z,4.70
2019-05-14T02:44:03.356Z,4.59
2019-05-14T02:45:03.323Z,4.61
2019-05-14T02:46:11.913Z,4.72
2019-05-14T02:47:04.288Z,4.61
2019-05-14T02:48:03.281Z,4.58
2019-05-14T02:49:03.286Z,4.59
2019-05-14T02:50:03.256Z,4.62
2019-05-14T02:51:03.246Z,4.43
2019-05-14T02:52:03.234Z,4.54
2019-05-14T02:53:03.224Z,4.59
2019-05-14T02:54:03.228Z,4.61
2019-05-14T02:55:03.204Z,4.50
2019-05-14T02:56:03.192Z,4.57
2019-05-14T02:57:03.195Z,4.52
2019-05-14T02:58:03.167Z,4.52
2019-05-14T02:59:05.838Z,4.59
2019-05-14T03:00:03.144Z,4.59
2019-05-14T03:01:03.132Z,4.54
2019-05-14T03:02:03.128Z,4.44
2019-05-14T03:03:03.108Z,4.29
2019-05-14T03:04:03.116Z,4.37
2019-05-14T03:05:03.084Z,4.39
2019-05-14T03:06:03.075Z,4.36
2019-05-14T03:07:03.072Z,4.32
2019-05-14T03:08:03.049Z,4.40
2019-05-14T03:09:03.061Z,4.36
2019-05-14T03:10:03.029Z,4.37
2019-05-14T03:11:03.025Z,4.44
2019-05-14T03:12:03.010Z,4.55
2019-05-14T03:13:03.010Z,4.47
2019-05-14T03:14:03.103Z,4.58
2019-05-14T03:15:02.974Z,4.54
2019-05-14T03:16:21.098Z,4.67
2019-05-14T03:17:03.946Z,4.79
2019-05-14T03:18:02.939Z,4.72
2019-05-14T03:19:02.929Z,4.76
2019-05-14T03:20:02.946Z,4.77
2019-05-14T03:21:02.903Z,4.91
2019-05-14T03:22:02.897Z,4.99
2019-05-14T03:23:08.622Z,5.12
2019-05-14T03:24:03.870Z,5.12
2019-05-14T03:25:02.875Z,5.14
2019-05-14T03:26:02.848Z,5.16
2019-05-14T03:27:02.844Z,5.41
2019-05-14T03:28:02.825Z,5.40
2019-05-14T03:29:02.813Z,5.45
2019-05-14T03:30:02.827Z,5.50
2019-05-14T03:31:04.129Z,5.60
2019-05-14T03:32:03.934Z,5.52
2019-05-14T03:33:03.553Z,5.56
2019-05-14T03:34:03.891Z,5.60
2019-05-14T03:35:04.342Z,5.59
2019-05-14T03:36:09.284Z,5.64
2019-05-14T03:37:04.345Z,5.57
2019-05-14T03:38:02.710Z,5.63
2019-05-14T03:39:02.695Z,5.59
2019-05-14T03:40:02.711Z,5.57
2019-05-14T03:41:02.676Z,5.52
2019-05-14T03:42:02.668Z,5.50
2019-05-14T03:43:02.651Z,5.64
2019-05-14T03:44:02.640Z,5.64
2019-05-14T03:45:02.631Z,5.67
2019-05-14T03:46:02.635Z,5.59
2019-05-14T03:47:05.414Z,5.57
2019-05-14T03:48:02.591Z,5.45
2019-05-14T03:49:02.579Z,5.46
2019-05-14T03:50:02.575Z,5.50
2019-05-14T03:51:02.577Z,5.46
2019-05-14T03:52:02.547Z,5.32
2019-05-14T03:53:02.535Z,5.35
2019-05-14T03:54:07.499Z,5.32
2019-05-14T03:55:04.757Z,5.19
2019-05-14T03:56:02.524Z,5.25
2019-05-14T03:57:02.498Z,5.19
2019-05-14T03:58:02.482Z,5.09
2019-05-14T03:59:02.533Z,5.14
2019-05-14T04:00:02.461Z,5.05
2019-05-14T04:01:02.462Z,5.09
2019-05-14T04:02:02.430Z,5.12
2019-05-14T04:03:02.419Z,5.07
2019-05-14T04:04:02.411Z,4.99
2019-05-14T04:05:02.396Z,4.99
2019-05-14T04:06:02.557Z,4.98
2019-05-14T04:07:02.384Z,5.01
2019-05-14T04:08:02.365Z,5.01
2019-05-14T04:09:02.354Z,4.98
2019-05-14T04:10:02.341Z,4.96
2019-05-14T04:11:02.357Z,5.05
2019-05-14T04:12:02.327Z,5.01
2019-05-14T04:13:02.342Z,5.09
2019-05-14T04:14:02.291Z,5.07
2019-05-14T04:15:02.286Z,5.01
2019-05-14T04:16:02.306Z,5.04
2019-05-14T04:17:09.558Z,4.95
2019-05-14T04:18:03.253Z,4.98
2019-05-14T04:19:02.235Z,5.07
2019-05-14T04:20:02.228Z,5.09
2019-05-14T04:21:02.212Z,4.99
2019-05-14T04:22:02.219Z,4.92
2019-05-14T04:23:02.198Z,4.95
2019-05-14T04:24:02.179Z,4.98
2019-05-14T04:25:02.191Z,4.91
2019-05-14T04:26:02.156Z,4.99
2019-05-14T04:27:07.703Z,5.09
2019-05-14T04:28:03.132Z,5.10
2019-05-14T04:29:02.133Z,4.99
2019-05-14T04:30:02.112Z,5.10
2019-05-14T04:31:02.101Z,4.99
2019-05-14T04:32:02.107Z,5.02
2019-05-14T04:33:02.079Z,4.98
2019-05-14T04:34:02.066Z,4.98
2019-05-14T04:35:02.053Z,4.98
2019-05-14T04:36:02.057Z,5.07
2019-05-14T04:37:02.053Z,4.96
2019-05-14T04:38:02.019Z,5.10
2019-05-14T04:39:02.010Z,5.02
2019-05-14T04:40:02.003Z,5.10
2019-05-14T04:41:01.983Z,5.10
2019-05-14T04:42:01.992Z,5.13
2019-05-14T04:43:01.962Z,5.17
2019-05-14T04:44:01.957Z,5.17
2019-05-14T04:45:05.443Z,5.20
2019-05-14T04:46:01.927Z,5.17
2019-05-14T04:47:21.473Z,5.17
2019-05-14T04:48:22.606Z,5.16
2019-05-14T04:49:02.892Z,5.28
2019-05-14T04:50:01.882Z,5.30
2019-05-14T04:51:01.870Z,5.43
2019-05-14T04:52:01.878Z,5.43
2019-05-14T04:53:01.848Z,5.37
2019-05-14T04:54:01.843Z,5.53
2019-05-14T04:55:01.827Z,5.67
2019-05-14T04:56:01.813Z,5.70
2019-05-14T04:57:01.827Z,5.68
2019-05-14T04:58:01.790Z,5.86
2019-05-14T04:59:01.777Z,5.83
2019-05-14T05:00:01.789Z,5.92
2019-05-14T05:01:01.755Z,5.85
2019-05-14T05:02:01.769Z,6.03
2019-05-14T05:03:01.737Z,6.00
2019-05-14T05:04:01.720Z,6.13
2019-05-14T05:05:01.711Z,6.25
2019-05-14T05:06:01.698Z,6.21
2019-05-14T05:07:01.711Z,6.38
2019-05-14T05:08:09.149Z,6.40
2019-05-14T05:09:01.666Z,6.35
2019-05-14T05:10:01.654Z,6.35
2019-05-14T05:11:01.643Z,6.41
2019-05-14T05:12:01.633Z,6.40
2019-05-14T05:13:01.636Z,6.51
2019-05-14T05:14:01.606Z,6.62
2019-05-14T05:15:01.596Z,6.61
2019-05-14T05:16:01.583Z,6.63
2019-05-14T05:17:01.572Z,6.66
2019-05-14T05:18:01.579Z,6.76
2019-05-14T05:19:01.547Z,6.73
2019-05-14T05:20:01.537Z,6.83
2019-05-14T05:21:01.527Z,6.86
2019-05-14T05:22:01.515Z,6.94
2019-05-14T05:23:01.522Z,6.86
2019-05-14T05:24:01.490Z,6.89
2019-05-14T05:25:01.480Z,6.86
2019-05-14T05:26:01.466Z,6.87
2019-05-14T05:27:01.458Z,7.01
2019-05-14T05:28:01.468Z,6.91
2019-05-14T05:29:06.557Z,7.12
2019-05-14T05:30:02.424Z,7.07
2019-05-14T05:31:01.413Z,7.15
2019-05-14T05:32:01.398Z,7.13
2019-05-14T05:33:01.388Z,7.16
2019-05-14T05:34:01.399Z,7.13
2019-05-14T05:35:01.368Z,7.24
2019-05-14T05:36:01.378Z,7.23
2019-05-14T05:37:01.342Z,7.17
2019-05-14T05:38:01.334Z,7.15
2019-05-14T05:39:01.339Z,7.20
2019-05-14T05:40:01.310Z,7.27
2019-05-14T05:41:01.299Z,7.23
2019-05-14T05:42:01.288Z,7.31
2019-05-14T05:43:01.275Z,7.22
2019-05-14T05:44:01.285Z,7.42
2019-05-14T05:45:01.255Z,7.44
2019-05-14T05:46:01.244Z,7.49
2019-05-14T05:47:01.233Z,7.53
2019-05-14T05:48:01.918Z,7.67
2019-05-14T05:49:01.228Z,7.63
2019-05-14T05:50:01.195Z,7.77
2019-05-14T05:51:01.183Z,7.77
2019-05-14T05:52:01.172Z,7.69
2019-05-14T05:53:01.164Z,7.69
2019-05-14T05:54:01.194Z,7.53
2019-05-14T05:55:01.142Z,7.56
2019-05-14T05:56:01.129Z,7.75
2019-05-14T05:57:01.116Z,7.74
2019-05-14T05:58:01.104Z,7.81
2019-05-14T05:59:01.124Z,7.85
2019-05-14T06:00:01.087Z,7.87
2019-05-14T06:01:01.071Z,7.87
2019-05-14T06:02:01.061Z,7.99
2019-05-14T06:03:01.051Z,7.97
2019-05-14T06:04:01.038Z,7.99
2019-05-14T06:05:01.043Z,7.97
2019-05-14T06:06:01.017Z,8.10
2019-05-14T06:07:02.768Z,8.26
2019-05-14T06:08:00.990Z,8.29
2019-05-14T06:09:00.980Z,8.42
2019-05-14T06:10:00.987Z,8.50
2019-05-14T06:11:00.954Z,8.57
2019-05-14T06:12:00.943Z,8.54
2019-05-14T06:13:00.938Z,8.60
2019-05-14T06:14:00.959Z,8.63
2019-05-14T06:15:00.928Z,8.94
2019-05-14T06:16:00.897Z,8.87
2019-05-14T06:17:00.886Z,8.83
2019-05-14T06:18:14.043Z,9.10
2019-05-14T06:19:01.861Z,9.30
2019-05-14T06:20:00.876Z,9.79
2019-05-14T06:21:00.840Z,10.36
2019-05-14T06:22:04.074Z,11.11
2019-05-14T06:23:00.819Z,11.36
2019-05-14T06:24:02.891Z,11.72
2019-05-14T06:25:00.821Z,12.24
2019-05-14T06:26:00.784Z,12.64
2019-05-14T06:27:00.770Z,12.74
2019-05-14T06:28:00.759Z,12.60
2019-05-14T06:29:00.746Z,13.18
2019-05-14T06:30:00.737Z,13.69
2019-05-14T06:31:00.744Z,14.13
2019-05-14T06:32:00.713Z,14.81
2019-05-14T06:33:00.703Z,15.09
2019-05-14T06:34:00.688Z,15.79
2019-05-14T06:35:00.678Z,16.27
2019-05-14T06:36:00.685Z,16.34
2019-05-14T06:37:00.655Z,16.40
2019-05-14T06:38:00.649Z,16.06
2019-05-14T06:39:00.633Z,15.79
2019-05-14T06:40:00.621Z,16.34
2019-05-14T06:41:00.628Z,16.67
2019-05-14T06:42:00.594Z,17.03
2019-05-14T06:43:00.588Z,17.73
2019-05-14T06:44:00.574Z,17.36
2019-05-14T06:45:00.563Z,17.48
2019-05-14T06:46:00.570Z,17.73
2019-05-14T06:47:00.538Z,17.06
2019-05-14T06:48:00.530Z,17.22
2019-05-14T06:49:00.516Z,17.69
2019-05-14T06:50:00.506Z,17.91
2019-05-14T06:51:00.512Z,17.46
2019-05-14T06:52:00.483Z,17.70
2019-05-14T06:53:00.470Z,18.09
2019-05-14T06:54:00.458Z,18.27
2019-05-14T06:55:00.448Z,17.95
2019-05-14T06:56:00.453Z,17.85
2019-05-14T06:57:00.423Z,18.40
2019-05-14T06:58:00.413Z,18.72
2019-05-14T06:59:00.401Z,19.17
2019-05-14T07:00:00.391Z,18.90
2019-05-14T07:01:00.402Z,18.82
2019-05-14T07:02:00.369Z,18.68
2019-05-14T07:03:00.357Z,18.50
2019-05-14T07:04:00.345Z,18.84
2019-05-14T07:05:00.334Z,18.67
2019-05-14T07:06:00.325Z,18.17
2019-05-14T07:07:00.332Z,18.68
2019-05-14T07:08:00.300Z,18.15
2019-05-14T07:09:00.295Z,17.87
2019-05-14T07:10:00.277Z,18.02
2019-05-14T07:11:00.269Z,18.09
2019-05-14T07:12:00.279Z,18.10
2019-05-14T07:13:00.244Z,18.58
2019-05-14T07:14:00.236Z,18.92
2019-05-14T07:15:00.224Z,19.58
2019-05-14T07:16:00.210Z,19.46
2019-05-14T07:17:00.227Z,19.91
2019-05-14T07:18:00.191Z,20.68
2019-05-14T07:19:00.178Z,21.59
2019-05-14T07:20:00.165Z,21.67
2019-05-14T07:21:00.152Z,21.23
2019-05-14T07:22:00.168Z,21.42
2019-05-14T07:23:00.129Z,21.72
2019-05-14T07:24:00.128Z,22.27
2019-05-14T07:25:00.111Z,21.50
2019-05-14T07:26:00.099Z,21.46
2019-05-14T07:27:00.104Z,20.69
2019-05-14T07:28:00.079Z,21.63
2019-05-14T07:29:00.067Z,22.78
2019-05-14T07:30:00.053Z,23.53
2019-05-14T07:31:00.054Z,24.12
2019-05-14T07:32:00.058Z,24.79
2019-05-14T07:33:00.032Z,25.37
2019-05-14T07:34:00.010Z,25.64
2019-05-14T07:35:00.021Z,25.82
2019-05-14T07:35:59.990Z,25.62
2019-05-14T07:36:59.975Z,25.74
2019-05-14T07:37:59.981Z,26.05
2019-05-14T07:39:00.386Z,26.25
2019-05-14T07:39:59.944Z,26.22
2019-05-14T07:40:59.931Z,26.43
2019-05-14T07:41:59.918Z,26.81
2019-05-14T07:42:59.937Z,27.10
2019-05-14T07:43:59.899Z,27.42
2019-05-14T07:44:59.889Z,26.76
2019-05-14T07:45:59.877Z,26.47
2019-05-14T07:46:59.866Z,26.61
2019-05-14T07:47:59.873Z,26.25
2019-05-14T07:49:08.160Z,26.15
2019-05-14T07:50:00.831Z,26.40
2019-05-14T07:51:00.226Z,24.92
2019-05-14T07:51:59.814Z,23.71
2019-05-14T07:53:03.044Z,24.02
2019-05-14T07:53:59.789Z,24.47
2019-05-14T07:54:59.777Z,25.19
2019-05-14T07:55:59.767Z,25.39
2019-05-14T07:56:59.755Z,25.77
2019-05-14T07:57:59.759Z,25.98
2019-05-14T07:59:02.087Z,24.95
2019-05-14T07:59:59.723Z,25.50
2019-05-14T08:00:59.723Z,25.87
2019-05-14T08:01:59.703Z,24.56
2019-05-14T08:02:59.690Z,23.57
2019-05-14T08:04:00.254Z,23.31
2019-05-14T08:04:59.671Z,23.89
2019-05-14T08:05:59.660Z,23.65
2019-05-14T08:06:59.652Z,24.32
2019-05-14T08:07:59.637Z,25.35
2019-05-14T08:08:59.649Z,26.24
2019-05-14T08:09:59.615Z,26.65
2019-05-14T08:10:59.605Z,27.57
2019-05-14T08:11:59.595Z,28.50
2019-05-14T08:12:59.587Z,28.26
2019-05-14T08:13:59.592Z,28.07
2019-05-14T08:15:14.149Z,28.11
2019-05-14T08:16:00.552Z,28.11
2019-05-14T08:16:59.706Z,26.69
2019-05-14T08:17:59.535Z,27.26
2019-05-14T08:19:00.092Z,27.94
2019-05-14T08:19:59.515Z,28.10
2019-05-14T08:20:59.544Z,28.80
2019-05-14T08:21:59.492Z,28.85
2019-05-14T08:22:59.480Z,28.84
2019-05-14T08:23:59.501Z,29.01
2019-05-14T08:24:59.458Z,28.90
2019-05-14T08:26:03.590Z,29.45
2019-05-14T08:27:00.437Z,29.71
2019-05-14T08:27:59.426Z,30.09
2019-05-14T08:28:59.435Z,29.63
2019-05-14T08:29:59.407Z,29.65
2019-05-14T08:30:59.395Z,30.11
2019-05-14T08:31:59.385Z,30.57
2019-05-14T08:32:59.376Z,28.48
2019-05-14T08:33:59.390Z,28.16
2019-05-14T08:34:59.355Z,28.09
2019-05-14T08:35:59.345Z,28.40
2019-05-14T08:37:03.976Z,28.28
2019-05-14T08:38:08.179Z,28.28
2019-05-14T08:39:00.340Z,28.95
2019-05-14T08:39:59.306Z,29.23
2019-05-14T08:40:59.297Z,29.81
2019-05-14T08:42:03.853Z,30.37
2019-05-14T08:43:00.281Z,30.52
2019-05-14T08:43:59.653Z,30.94
2019-05-14T08:44:59.443Z,30.78
2019-05-14T08:45:59.247Z,30.29
2019-05-14T08:46:59.307Z,29.00
2019-05-14T08:47:59.228Z,27.88
2019-05-14T08:48:59.216Z,26.01
2019-05-14T08:50:00.050Z,25.22
2019-05-14T08:50:59.211Z,25.00
2019-05-14T08:51:59.672Z,25.89
2019-05-14T08:52:59.176Z,27.13
2019-05-14T08:53:59.379Z,28.06
2019-05-14T08:55:09.156Z,28.60
2019-05-14T08:56:00.148Z,28.68
2019-05-14T08:56:59.139Z,28.56
2019-05-14T08:57:59.512Z,28.90
2019-05-14T08:58:59.209Z,28.90
2019-05-14T08:59:59.484Z,29.41
2019-05-14T09:00:59.096Z,29.94
2019-05-14T09:02:06.353Z,30.54
2019-05-14T09:03:03.072Z,30.90
2019-05-14T09:03:59.704Z,31.42
2019-05-14T09:05:04.191Z,31.61
2019-05-14T09:06:00.833Z,31.65
2019-05-14T09:06:59.034Z,31.61
2019-05-14T09:07:59.025Z,31.20
2019-05-14T09:08:59.696Z,31.05
2019-05-14T09:10:00.106Z,30.87
2019-05-14T09:10:59.296Z,31.15
2019-05-14T09:11:59.881Z,31.64
2019-05-14T09:13:02.557Z,31.43
2019-05-14T09:13:59.375Z,31.02
2019-05-14T09:14:59.075Z,29.26
2019-05-14T09:15:58.942Z,26.98
2019-05-14T09:16:59.934Z,26.79
2019-05-14T09:18:03.107Z,27.77
2019-05-14T09:18:58.912Z,28.62
2019-05-14T09:20:06.670Z,29.01
2019-05-14T09:20:59.893Z,28.58
2019-05-14T09:21:59.089Z,28.04
2019-05-14T09:22:59.566Z,26.32
2019-05-14T09:23:58.889Z,26.28
2019-05-14T09:25:00.125Z,27.23
2019-05-14T09:25:59.073Z,28.32
2019-05-14T09:26:59.381Z,27.17
2019-05-14T09:27:58.815Z,27.35
2019-05-14T09:28:58.815Z,27.84
2019-05-14T09:29:59.118Z,28.17
2019-05-14T09:30:59.733Z,28.85
2019-05-14T09:31:59.230Z,29.57
2019-05-14T09:32:59.430Z,29.92
2019-05-14T09:33:58.759Z,29.71
2019-05-14T09:34:59.072Z,29.94
2019-05-14T09:36:13.137Z,30.21
2019-05-14T09:36:59.725Z,29.99
2019-05-14T09:37:59.316Z,29.77
2019-05-14T09:38:58.707Z,29.49
2019-05-14T09:39:58.717Z,28.32
2019-05-14T09:41:08.186Z,28.53
2019-05-14T09:41:59.675Z,29.26
2019-05-14T09:42:58.890Z,30.15
2019-05-14T09:43:58.829Z,30.02
2019-05-14T09:44:59.569Z,30.29
2019-05-14T09:45:58.888Z,28.75
2019-05-14T09:46:59.362Z,28.50
2019-05-14T09:47:58.676Z,28.97
2019-05-14T09:48:58.978Z,29.59
2019-05-14T09:50:14.981Z,30.19
2019-05-14T09:50:59.600Z,29.07
2019-05-14T09:51:58.573Z,28.56
2019-05-14T09:52:59.338Z,27.36
2019-05-14T09:53:58.964Z,27.99
2019-05-14T09:54:58.693Z,28.77
2019-05-14T09:55:58.546Z,27.54
2019-05-14T09:56:59.170Z,28.06
2019-05-14T09:57:58.742Z,28.47
2019-05-14T09:58:58.843Z,29.52
2019-05-14T09:59:58.707Z,29.44
2019-05-14T10:00:59.259Z,29.34
2019-05-14T10:01:58.746Z,29.90
2019-05-14T10:02:59.627Z,29.89
2019-05-14T10:03:59.241Z,29.44
2019-05-14T10:04:59.835Z,29.38
2019-05-14T10:05:59.130Z,29.82
2019-05-14T10:06:59.237Z,30.53
2019-05-14T10:07:59.465Z,31.04
2019-05-14T10:08:59.016Z,30.33
2019-05-14T10:09:58.386Z,29.66
2019-05-14T10:11:00.314Z,30.18
2019-05-14T10:11:58.385Z,30.21
2019-05-14T10:13:01.419Z,29.66
2019-05-14T10:13:59.907Z,29.66
2019-05-14T10:14:59.163Z,29.70
2019-05-14T10:15:58.905Z,30.05
2019-05-14T10:16:58.408Z,29.78
2019-05-14T10:18:00.364Z,29.72
2019-05-14T10:18:58.302Z,29.35
2019-05-14T10:19:59.487Z,28.04
2019-05-14T10:20:59.006Z,27.33
2019-05-14T10:21:58.801Z,28.51
2019-05-14T10:22:58.599Z,28.84
2019-05-14T10:23:58.552Z,27.19
2019-05-14T10:24:58.344Z,26.29
2019-05-14T10:25:58.287Z,25.68
2019-05-14T10:26:58.630Z,25.53
2019-05-14T10:27:59.065Z,25.34
2019-05-14T10:28:59.040Z,24.77
2019-05-14T10:29:58.894Z,25.75
2019-05-14T10:30:59.943Z,26.94
2019-05-14T10:31:59.193Z,26.83
2019-05-14T10:33:07.315Z,28.04
2019-05-14T10:33:59.142Z,27.33
2019-05-14T10:34:58.971Z,26.81
2019-05-14T10:35:58.826Z,26.08
2019-05-14T10:36:59.053Z,25.10
2019-05-14T10:37:59.909Z,24.85
2019-05-14T10:38:58.854Z,24.47
2019-05-14T10:39:58.671Z,23.86
2019-05-14T10:40:58.550Z,24.83
2019-05-14T10:41:58.068Z,25.47
2019-05-14T10:42:58.064Z,25.65
2019-05-14T10:43:58.886Z,24.53
2019-05-14T10:44:58.740Z,23.71
2019-05-14T10:45:58.202Z,23.11
2019-05-14T10:46:58.335Z,23.95
2019-05-14T10:47:58.568Z,25.09
2019-05-14T10:48:58.689Z,25.82
2019-05-14T10:49:58.966Z,24.27
2019-05-14T10:51:03.313Z,23.53
2019-05-14T10:51:58.956Z,24.45
2019-05-14T10:52:59.423Z,25.10
2019-05-14T10:53:59.346Z,25.68
2019-05-14T10:54:59.061Z,26.05
2019-05-14T10:55:58.402Z,25.49
2019-05-14T10:56:59.143Z,26.02
2019-05-14T10:57:58.563Z,25.74
2019-05-14T10:58:58.373Z,26.12
2019-05-14T10:59:59.143Z,26.17
2019-05-14T11:00:58.928Z,26.17
2019-05-14T11:01:57.840Z,25.68
2019-05-14T11:02:57.850Z,25.59
2019-05-14T11:03:57.832Z,25.74
2019-05-14T11:04:58.679Z,26.18
2019-05-14T11:05:58.837Z,26.94
2019-05-14T11:06:57.792Z,27.46
2019-05-14T11:07:58.673Z,27.73
2019-05-14T11:08:57.773Z,28.21
2019-05-14T11:09:57.759Z,28.84
2019-05-14T11:11:03.764Z,29.25
2019-05-14T11:11:58.734Z,28.56
2019-05-14T11:12:59.293Z,28.09
2019-05-14T11:13:57.714Z,28.21
2019-05-14T11:14:57.704Z,27.82
2019-05-14T11:15:59.537Z,27.54
2019-05-14T11:16:59.154Z,27.62
2019-05-14T11:17:57.695Z,27.47
2019-05-14T11:18:57.812Z,27.10
2019-05-14T11:19:58.673Z,27.33
2019-05-14T11:21:17.970Z,26.79
2019-05-14T11:21:58.630Z,26.32
2019-05-14T11:22:58.455Z,26.79
2019-05-14T11:23:58.524Z,27.36
2019-05-14T11:24:59.148Z,28.10
2019-05-14T11:25:58.135Z,28.40
2019-05-14T11:26:59.137Z,28.87
2019-05-14T11:27:58.682Z,29.57
2019-05-14T11:28:58.521Z,29.65
2019-05-14T11:29:58.654Z,29.07
2019-05-14T11:30:57.540Z,27.50
2019-05-14T11:31:57.529Z,25.97
2019-05-14T11:32:58.366Z,26.74
2019-05-14T11:33:59.034Z,27.48
2019-05-14T11:34:59.132Z,27.42
2019-05-14T11:35:58.504Z,27.62
2019-05-14T11:36:58.925Z,26.96
2019-05-14T11:37:58.875Z,26.95
2019-05-14T11:39:02.816Z,26.67
2019-05-14T11:39:58.440Z,26.09
2019-05-14T11:40:58.776Z,26.87
2019-05-14T11:41:59.105Z,26.81
2019-05-14T11:42:59.173Z,26.50
2019-05-14T11:43:59.391Z,25.46
2019-05-14T11:44:58.210Z,24.61
2019-05-14T11:45:59.389Z,24.01
2019-05-14T11:46:59.236Z,24.39
2019-05-14T11:47:58.441Z,24.63
2019-05-14T11:48:59.422Z,24.76
2019-05-14T11:49:59.195Z,25.05
2019-05-14T11:50:59.297Z,25.52
2019-05-14T11:52:07.311Z,26.15
2019-05-14T11:52:58.606Z,26.83
2019-05-14T11:53:58.706Z,27.28
2019-05-14T11:54:58.475Z,27.21
2019-05-14T11:55:58.724Z,27.51
2019-05-14T11:56:58.938Z,27.02
2019-05-14T11:57:58.314Z,27.11
2019-05-14T11:58:59.066Z,27.29
2019-05-14T11:59:58.122Z,27.53
2019-05-14T12:00:58.432Z,26.43
2019-05-14T12:01:59.323Z,26.28
2019-05-14T12:02:58.607Z,26.91
2019-05-14T12:03:59.767Z,25.44
2019-05-14T12:04:57.190Z,24.50
2019-05-14T12:05:58.635Z,24.52
2019-05-14T12:06:59.073Z,24.85
2019-05-14T12:07:57.140Z,25.20
2019-05-14T12:08:58.231Z,25.12
2019-05-14T12:09:57.136Z,25.15
2019-05-14T12:10:59.341Z,24.82
2019-05-14T12:11:58.667Z,24.76
2019-05-14T12:12:58.384Z,25.24
2019-05-14T12:13:59.805Z,25.35
2019-05-14T12:14:58.250Z,25.57
2019-05-14T12:15:59.133Z,25.37
2019-05-14T12:16:59.737Z,25.30
2019-05-14T12:17:59.600Z,25.65
2019-05-14T12:18:59.069Z,25.77
2019-05-14T12:19:59.410Z,25.91
2019-05-14T12:20:59.388Z,25.94
2019-05-14T12:22:06.658Z,25.69
2019-05-14T12:22:59.256Z,25.93
2019-05-14T12:24:03.090Z,26.72
2019-05-14T12:24:58.417Z,26.87
2019-05-14T12:25:58.766Z,26.62
2019-05-14T12:26:58.590Z,25.57
2019-05-14T12:27:58.946Z,25.35
2019-05-14T12:28:59.434Z,25.37
2019-05-14T12:29:59.681Z,25.97
2019-05-14T12:30:58.343Z,26.50
2019-05-14T12:31:58.601Z,26.98
2019-05-14T12:32:58.972Z,27.04
2019-05-14T12:33:58.357Z,27.09
2019-05-14T12:34:59.215Z,25.28
2019-05-14T12:36:00.254Z,24.54
2019-05-14T12:36:58.136Z,24.63
2019-05-14T12:37:58.593Z,24.90
2019-05-14T12:38:59.135Z,25.64
2019-05-14T12:39:59.021Z,26.28
2019-05-14T12:40:58.535Z,26.61
2019-05-14T12:41:58.151Z,26.42
2019-05-14T12:42:59.018Z,26.52
2019-05-14T12:43:58.927Z,26.54
2019-05-14T12:44:58.571Z,26.61
2019-05-14T12:45:59.132Z,26.92
2019-05-14T12:46:58.683Z,25.65
2019-05-14T12:47:58.443Z,25.19
2019-05-14T12:48:59.014Z,23.94
2019-05-14T12:49:58.722Z,21.85
2019-05-14T12:50:59.313Z,21.46
2019-05-14T12:51:59.158Z,22.28
2019-05-14T12:52:58.882Z,23.27
2019-05-14T12:53:58.331Z,24.47
2019-05-14T12:54:59.590Z,25.07
2019-05-14T12:55:56.642Z,25.24
2019-05-14T12:56:56.611Z,25.68
2019-05-14T12:57:59.486Z,26.02
2019-05-14T12:58:58.338Z,26.37
2019-05-14T12:59:58.208Z,26.76
2019-05-14T13:00:59.167Z,26.99
2019-05-14T13:01:58.695Z,27.32
2019-05-14T13:02:58.537Z,27.67
2019-05-14T13:03:59.058Z,27.88